Time;durP1;ratioP1;P1;durP2;ratioP2;P2;SDS_P1;SDS_P2;PMS_P1;PMS_P2;Temp;Humidity;BMP_temperature;BMP_pressure;BME280_temperature;BME280_humidity;BME280_pressure;Samples;Min_cycle;Max_cycle;Signal;HPM_P1;HPM_P2
2022/04/15 00:01:15;;;;;;;9.57;6.13;;;10.60;83.30;;;;;;5038903;28;20045;-68
2022/04/15 00:03:41;;;;;;;8.68;6.00;;;10.60;83.60;;;;;;5033003;28;20037;-67
2022/04/15 00:06:08;;;;;;;10.18;6.53;;;10.60;83.80;;;;;;5042142;28;20060;-67
2022/04/15 00:08:35;;;;;;;10.50;7.05;;;10.50;84.10;;;;;;5047781;28;20082;-67
2022/04/15 00:11:01;;;;;;;8.68;6.85;;;10.50;84.80;;;;;;5040696;28;20028;-67
2022/04/15 00:13:29;;;;;;;9.73;7.35;;;10.50;85.30;;;;;;5041713;28;20496;-67
2022/04/15 00:15:55;;;;;;;9.68;6.97;;;10.40;85.60;;;;;;5041582;28;20021;-67
2022/04/15 00:18:21;;;;;;;12.00;6.93;;;10.40;86.00;;;;;;5035684;28;20383;-66
2022/04/15 00:20:47;;;;;;;10.80;7.05;;;10.40;86.20;;;;;;5051087;28;20031;-66
2022/04/15 00:23:12;;;;;;;9.98;6.93;;;10.40;86.60;;;;;;5036550;28;20096;-66
2022/04/15 00:25:38;;;;;;;8.75;7.35;;;10.40;87.00;;;;;;5035041;28;20037;-66
2022/04/15 00:28:03;;;;;;;8.82;6.68;;;10.40;87.20;;;;;;5040390;28;20013;-66
2022/04/15 00:30:29;;;;;;;10.82;6.88;;;10.40;87.30;;;;;;5036236;28;20048;-66
2022/04/15 00:32:54;;;;;;;10.27;6.90;;;10.40;87.70;;;;;;5037676;28;20032;-66
2022/04/15 00:35:20;;;;;;;10.88;7.82;;;10.30;88.00;;;;;;5039714;28;20033;-67
2022/04/15 00:37:47;;;;;;;14.18;8.35;;;10.30;88.50;;;;;;5034839;28;20025;-67
2022/04/15 00:40:13;;;;;;;13.98;9.65;;;10.30;89.10;;;;;;5032039;28;20539;-67
2022/04/15 00:42:38;;;;;;;12.18;9.05;;;10.20;90.00;;;;;;5042925;28;20108;-68
2022/04/15 00:45:05;;;;;;;14.45;9.35;;;10.20;90.30;;;;;;5037147;28;20071;-67
2022/04/15 00:47:30;;;;;;;11.48;8.73;;;10.10;90.70;;;;;;5031763;28;20029;-67
2022/04/15 00:49:57;;;;;;;15.98;10.50;;;10.10;91.00;;;;;;5034708;28;20437;-67
2022/04/15 00:52:26;;;;;;;17.15;10.48;;;10.00;91.50;;;;;;5034869;28;20020;-67
2022/04/15 00:54:54;;;;;;;15.52;9.88;;;10.00;91.90;;;;;;5037168;28;20033;-67
2022/04/15 00:57:25;;;;;;;15.32;10.30;;;10.00;92.20;;;;;;5031587;28;20018;-67
2022/04/15 00:59:54;;;;;;;13.32;9.13;;;10.00;92.50;;;;;;5031666;28;20079;-67
2022/04/15 01:02:21;;;;;;;12.98;9.45;;;9.90;92.70;;;;;;5028865;28;20025;-67
2022/04/15 01:04:51;;;;;;;13.88;10.32;;;9.90;93.00;;;;;;5034148;28;20112;-67
2022/04/15 01:07:20;;;;;;;15.27;10.75;;;9.90;93.30;;;;;;5028653;28;20029;-67
2022/04/15 01:09:50;;;;;;;13.98;10.02;;;9.80;93.70;;;;;;5037004;28;20077;-66
2022/04/15 01:12:18;;;;;;;11.02;8.85;;;9.80;93.90;;;;;;5031573;28;20036;-66
2022/04/15 01:14:46;;;;;;;13.90;10.38;;;9.80;94.10;;;;;;5033980;28;20025;-67
2022/04/15 01:17:11;;;;;;;13.48;9.57;;;9.70;94.40;;;;;;5034179;28;20156;-67
2022/04/15 01:19:38;;;;;;;11.35;8.43;;;9.70;94.50;;;;;;5039522;28;20579;-67
2022/04/15 01:22:08;;;;;;;10.65;7.97;;;9.70;94.50;;;;;;5028596;28;20574;-67
2022/04/15 01:24:34;;;;;;;15.38;10.40;;;9.70;94.60;;;;;;5032909;28;20489;-66
2022/04/15 01:26:59;;;;;;;13.40;11.27;;;9.70;94.90;;;;;;5031173;28;20034;-66
2022/04/15 01:29:34;;;;;;;13.02;9.30;;;9.70;95.10;;;;;;5030946;28;20097;-66
2022/04/15 01:32:03;;;;;;;13.05;9.02;;;9.70;95.20;;;;;;5034056;28;20114;-66
2022/04/15 01:34:29;;;;;;;12.40;7.93;;;9.70;95.30;;;;;;5038809;28;20139;-66
2022/04/15 01:36:55;;;;;;;12.18;8.70;;;9.70;95.30;;;;;;5034438;28;20040;-67
2022/04/15 01:39:21;;;;;;;10.77;8.35;;;9.60;95.40;;;;;;5037108;28;20036;-68
2022/04/15 01:41:46;;;;;;;12.40;8.98;;;9.60;95.50;;;;;;5040535;28;20037;-66
2022/04/15 01:44:15;;;;;;;12.13;8.82;;;9.60;95.60;;;;;;5032621;28;20017;-67
2022/04/15 01:46:42;;;;;;;14.35;10.32;;;9.50;95.80;;;;;;5036973;28;20043;-66
2022/04/15 01:49:08;;;;;;;12.38;9.23;;;9.50;96.20;;;;;;5030567;28;20040;-67
2022/04/15 01:51:35;;;;;;;16.70;9.80;;;9.50;96.10;;;;;;5028107;28;20360;-67
2022/04/15 01:54:01;;;;;;;12.18;8.38;;;9.50;96.20;;;;;;5033436;28;20026;-67
2022/04/15 01:56:27;;;;;;;11.65;7.88;;;9.50;96.20;;;;;;5036381;28;20041;-67
2022/04/15 01:58:52;;;;;;;12.15;8.40;;;9.50;96.20;;;;;;5030763;28;20461;-67
2022/04/15 02:01:18;;;;;;;11.02;7.93;;;9.50;96.30;;;;;;5039148;28;20589;-67
2022/04/15 02:03:43;;;;;;;9.43;7.82;;;9.40;96.30;;;;;;5035879;28;20483;-67
2022/04/15 02:06:09;;;;;;;13.18;8.95;;;9.40;96.50;;;;;;5033169;28;20521;-67
2022/04/15 02:08:34;;;;;;;11.50;7.97;;;9.40;96.50;;;;;;5036686;28;20017;-67
2022/04/15 02:11:00;;;;;;;11.45;7.75;;;9.40;96.60;;;;;;5034259;28;20041;-67
2022/04/15 02:13:25;;;;;;;11.48;7.72;;;9.40;96.70;;;;;;5033219;28;20029;-67
2022/04/15 02:15:51;;;;;;;9.73;7.18;;;9.40;96.70;;;;;;5037620;28;20029;-67
2022/04/15 02:18:16;;;;;;;14.40;9.20;;;9.30;96.70;;;;;;5038168;28;20139;-67
2022/04/15 02:20:42;;;;;;;13.45;8.68;;;9.30;96.70;;;;;;5037144;28;20074;-67
2022/04/15 02:23:07;;;;;;;10.80;8.07;;;9.20;97.10;;;;;;5037967;28;20049;-68
2022/04/15 02:25:33;;;;;;;12.68;9.52;;;9.20;96.90;;;;;;5036226;28;20030;-67
2022/04/15 02:27:58;;;;;;;12.55;9.38;;;9.20;97.00;;;;;;5032309;28;20033;-67
2022/04/15 02:30:24;;;;;;;12.45;9.93;;;9.10;97.10;;;;;;5033082;28;20037;-67
2022/04/15 02:32:49;;;;;;;14.95;10.57;;;9.10;97.30;;;;;;5046116;28;20047;-67
2022/04/15 02:35:15;;;;;;;14.23;11.38;;;9.00;97.50;;;;;;5039041;28;20031;-67
2022/04/15 02:37:40;;;;;;;13.13;10.68;;;9.00;97.80;;;;;;5039600;28;20517;-67
2022/04/15 02:40:07;;;;;;;13.82;10.07;;;8.90;98.10;;;;;;5039822;28;20079;-67
2022/04/15 02:42:33;;;;;;;13.05;9.73;;;8.90;98.30;;;;;;5040213;28;20107;-67
2022/04/15 02:44:59;;;;;;;13.68;11.43;;;8.90;98.60;;;;;;5044140;28;20477;-67
2022/04/15 02:47:25;;;;;;;11.52;9.63;;;8.90;98.90;;;;;;5033338;28;20109;-67
2022/04/15 02:49:50;;;;;;;11.82;10.35;;;8.80;99.00;;;;;;5042365;28;20538;-67
2022/04/15 02:52:16;;;;;;;15.85;12.10;;;8.90;99.20;;;;;;5034218;28;20028;-68
2022/04/15 02:54:41;;;;;;;14.20;11.00;;;8.80;99.50;;;;;;5033843;28;20120;-67
2022/04/15 02:57:07;;;;;;;14.82;11.48;;;8.90;99.60;;;;;;5044624;28;20497;-66
2022/04/15 02:59:33;;;;;;;13.85;11.85;;;8.90;99.70;;;;;;5033807;28;20029;-68
2022/04/15 03:01:58;;;;;;;13.52;10.88;;;8.90;99.90;;;;;;5044581;28;20160;-67
2022/04/15 03:04:24;;;;;;;12.77;10.88;;;8.90;99.90;;;;;;5034429;28;20061;-67
2022/04/15 03:06:49;;;;;;;15.90;12.85;;;8.80;99.90;;;;;;5038818;28;20123;-68
2022/04/15 03:09:15;;;;;;;14.90;12.05;;;8.80;99.90;;;;;;5041787;28;20072;-67
2022/04/15 03:11:41;;;;;;;13.45;11.02;;;8.80;99.90;;;;;;5041810;28;21187;-68
2022/04/15 03:14:07;;;;;;;11.55;10.00;;;8.70;99.90;;;;;;5039228;28;20052;-67
2022/04/15 03:16:33;;;;;;;13.95;10.93;;;8.70;99.90;;;;;;5033756;28;20499;-67
2022/04/15 03:18:59;;;;;;;11.80;8.88;;;8.70;99.90;;;;;;5042795;28;20037;-68
2022/04/15 03:21:24;;;;;;;11.23;9.20;;;8.70;99.90;;;;;;5033151;28;20033;-66
2022/04/15 03:23:50;;;;;;;11.38;9.18;;;8.70;99.90;;;;;;5036508;28;20045;-67
2022/04/15 03:26:15;;;;;;;13.07;10.02;;;8.70;99.90;;;;;;5033394;28;20040;-67
2022/04/15 03:28:41;;;;;;;11.85;9.18;;;8.70;99.90;;;;;;5049915;28;20664;-67
2022/04/15 03:31:09;;;;;;;13.25;9.75;;;8.70;99.90;;;;;;5037257;28;20021;-67
2022/04/15 03:33:34;;;;;;;11.90;10.25;;;8.70;99.90;;;;;;5036494;28;20044;-67
2022/04/15 03:36:00;;;;;;;12.32;9.63;;;8.70;99.90;;;;;;5034413;28;20037;-67
2022/04/15 03:38:25;;;;;;;14.30;11.13;;;8.70;99.90;;;;;;5035714;28;20056;-68
2022/04/15 03:40:51;;;;;;;13.65;11.05;;;8.60;99.90;;;;;;5035779;28;20037;-67
2022/04/15 03:43:16;;;;;;;12.80;10.00;;;8.60;99.90;;;;;;5031711;28;20018;-67
2022/04/15 03:45:42;;;;;;;16.52;12.07;;;8.60;99.90;;;;;;5034337;28;20020;-67
2022/04/15 03:48:07;;;;;;;11.60;9.38;;;8.60;99.90;;;;;;5036914;28;20492;-67
2022/04/15 03:50:33;;;;;;;13.02;9.63;;;8.60;99.90;;;;;;5033325;28;20029;-67
2022/04/15 03:52:59;;;;;;;9.45;7.32;;;8.70;99.90;;;;;;5039324;28;20033;-67
2022/04/15 03:55:25;;;;;;;11.45;9.10;;;8.70;99.90;;;;;;5033327;28;20025;-67
2022/04/15 03:57:50;;;;;;;13.70;10.93;;;8.70;99.90;;;;;;5037815;28;20106;-67
2022/04/15 04:00:16;;;;;;;11.48;9.55;;;8.70;99.90;;;;;;5035525;28;20048;-67
2022/04/15 04:02:43;;;;;;;13.55;10.05;;;8.70;99.90;;;;;;5038214;28;20032;-67
2022/04/15 04:05:09;;;;;;;13.07;9.20;;;8.70;99.90;;;;;;5032622;28;20033;-68
2022/04/15 04:07:35;;;;;;;11.60;9.20;;;8.70;99.90;;;;;;5037359;28;20033;-67
2022/04/15 04:10:00;;;;;;;10.63;8.27;;;8.80;99.90;;;;;;5036025;28;20029;-67
2022/04/15 04:12:31;;;;;;;12.82;9.23;;;8.80;99.90;;;;;;5030995;28;20429;-67
2022/04/15 04:14:56;;;;;;;10.60;8.23;;;8.80;99.90;;;;;;5031989;28;20028;-67
2022/04/15 04:17:22;;;;;;;13.48;9.45;;;8.80;99.90;;;;;;5035823;28;20029;-67
2022/04/15 04:19:47;;;;;;;14.15;9.05;;;8.90;99.90;;;;;;5033194;28;20087;-68
2022/04/15 04:22:13;;;;;;;11.52;9.23;;;8.80;99.90;;;;;;5038580;28;20057;-66
2022/04/15 04:24:38;;;;;;;12.50;8.98;;;8.80;99.90;;;;;;5030574;28;20500;-67
2022/04/15 04:27:04;;;;;;;14.60;9.35;;;8.80;99.90;;;;;;5037539;28;20374;-67
2022/04/15 04:29:29;;;;;;;10.77;8.68;;;8.80;99.90;;;;;;5035037;28;20374;-67
2022/04/15 04:31:55;;;;;;;14.65;9.88;;;8.80;99.90;;;;;;5029553;28;20455;-67
2022/04/15 04:34:20;;;;;;;10.30;7.97;;;8.90;99.90;;;;;;5035688;28;20044;-67
2022/04/15 04:36:46;;;;;;;12.57;9.55;;;8.90;99.90;;;;;;5041007;28;20060;-67
2022/04/15 04:39:11;;;;;;;11.90;8.73;;;8.90;99.90;;;;;;5033840;28;20029;-67
2022/04/15 04:41:38;;;;;;;12.77;8.70;;;8.90;99.90;;;;;;5034855;28;20521;-67
2022/04/15 04:44:05;;;;;;;11.40;8.10;;;9.00;99.90;;;;;;5034557;28;20489;-67
2022/04/15 04:46:31;;;;;;;10.68;7.90;;;9.00;99.90;;;;;;5034621;28;20041;-67
2022/04/15 04:48:56;;;;;;;11.25;8.00;;;9.00;99.90;;;;;;5031857;28;20033;-67
2022/04/15 04:51:22;;;;;;;9.93;7.65;;;9.00;99.90;;;;;;5035939;28;20025;-67
2022/04/15 04:53:48;;;;;;;13.77;8.50;;;9.00;99.90;;;;;;5040067;28;20100;-67
2022/04/15 04:56:15;;;;;;;12.55;9.07;;;9.10;99.90;;;;;;5039059;28;20021;-67
2022/04/15 04:58:41;;;;;;;10.20;7.65;;;9.10;99.90;;;;;;5040645;28;20104;-67
2022/04/15 05:01:06;;;;;;;10.90;7.78;;;9.10;99.90;;;;;;5032123;28;20235;-67
2022/04/15 05:03:32;;;;;;;9.65;7.38;;;9.10;99.90;;;;;;5036496;28;20503;-67
2022/04/15 05:05:57;;;;;;;12.38;8.13;;;9.20;99.90;;;;;;5037059;28;20028;-67
2022/04/15 05:08:23;;;;;;;11.90;7.72;;;9.20;99.90;;;;;;5035341;28;20158;-67
2022/04/15 05:10:48;;;;;;;9.98;7.30;;;9.20;99.90;;;;;;5031225;28;20030;-67
2022/04/15 05:13:14;;;;;;;10.07;7.15;;;9.20;99.90;;;;;;5030076;28;20132;-67
2022/04/15 05:15:39;;;;;;;15.18;9.32;;;9.20;99.90;;;;;;5031140;28;20030;-67
2022/04/15 05:18:05;;;;;;;13.70;8.13;;;9.20;99.90;;;;;;5031102;28;20528;-67
2022/04/15 05:20:32;;;;;;;12.40;8.70;;;9.20;99.90;;;;;;5034091;28;20104;-67
2022/04/15 05:22:58;;;;;;;11.30;7.88;;;9.20;99.90;;;;;;5028338;28;20408;-67
2022/04/15 05:25:24;;;;;;;12.32;8.45;;;9.20;99.90;;;;;;5042463;28;20029;-67
2022/04/15 05:27:49;;;;;;;11.27;8.57;;;9.30;99.90;;;;;;5042655;28;20448;-67
2022/04/15 05:30:15;;;;;;;11.00;7.95;;;9.30;99.90;;;;;;5034597;28;20079;-67
2022/04/15 05:32:41;;;;;;;13.95;8.90;;;9.30;99.90;;;;;;5032066;28;20108;-67
2022/04/15 05:35:07;;;;;;;12.35;9.63;;;9.30;99.90;;;;;;5036275;28;20029;-68
2022/04/15 05:37:32;;;;;;;13.75;10.27;;;9.30;99.90;;;;;;5028259;28;20112;-67
2022/04/15 05:39:58;;;;;;;11.43;8.85;;;9.30;99.90;;;;;;5049113;28;20154;-67
2022/04/15 05:42:28;;;;;;;12.77;9.43;;;9.30;99.90;;;;;;5036220;28;20032;-68
2022/04/15 05:44:53;;;;;;;14.10;9.32;;;9.30;99.90;;;;;;5035538;28;20108;-67
2022/04/15 05:47:18;;;;;;;11.93;8.80;;;9.30;99.90;;;;;;5030979;28;20037;-67
2022/04/15 05:49:44;;;;;;;12.23;8.07;;;9.30;99.90;;;;;;5033866;28;20033;-67
2022/04/15 05:52:10;;;;;;;11.82;9.05;;;9.40;99.90;;;;;;5038378;28;20473;-66
2022/04/15 05:54:35;;;;;;;12.20;8.98;;;9.50;99.90;;;;;;5043609;28;20029;-67
2022/04/15 05:57:01;;;;;;;11.18;8.18;;;9.60;99.90;;;;;;5040112;28;20578;-67
2022/04/15 05:59:26;;;;;;;11.05;7.65;;;9.60;99.90;;;;;;5039233;28;20143;-67
2022/04/15 06:01:52;;;;;;;9.73;6.70;;;9.70;99.90;;;;;;5040889;28;20176;-67
2022/04/15 06:04:18;;;;;;;8.32;6.47;;;9.80;99.90;;;;;;5042468;28;20485;-66
2022/04/15 06:06:44;;;;;;;9.27;6.63;;;9.80;99.90;;;;;;5035522;28;20485;-66
2022/04/15 06:09:09;;;;;;;8.65;6.82;;;9.80;99.90;;;;;;5045354;28;20121;-67
2022/04/15 06:11:36;;;;;;;10.07;6.35;;;9.90;99.90;;;;;;5031547;28;20048;-67
2022/04/15 06:14:03;;;;;;;7.07;6.05;;;9.90;99.90;;;;;;5030860;28;20045;-67
2022/04/15 06:16:32;;;;;;;6.22;5.35;;;9.90;99.90;;;;;;5031619;28;20030;-67
2022/04/15 06:19:01;;;;;;;7.68;5.43;;;10.00;99.90;;;;;;5031488;28;20029;-67
2022/04/15 06:21:26;;;;;;;8.07;5.80;;;10.00;99.90;;;;;;5031571;28;20068;-64
2022/04/15 06:23:53;;;;;;;7.43;5.75;;;10.00;99.90;;;;;;5031863;28;20021;-66
2022/04/15 06:26:19;;;;;;;6.53;4.68;;;10.00;99.90;;;;;;5031802;28;20018;-67
2022/04/15 06:28:44;;;;;;;6.05;4.65;;;10.00;99.90;;;;;;5031618;28;20589;-66
2022/04/15 06:31:10;;;;;;;6.55;4.00;;;10.10;99.90;;;;;;5030558;28;20025;-66
2022/04/15 06:33:37;;;;;;;7.75;4.85;;;10.10;99.90;;;;;;5037847;28;20104;-66
2022/04/15 06:36:03;;;;;;;8.07;4.50;;;10.10;99.90;;;;;;5048163;28;20104;-66
2022/04/15 06:38:28;;;;;;;5.95;4.25;;;10.10;99.90;;;;;;5045941;28;20017;-67
2022/04/15 06:40:54;;;;;;;5.28;3.20;;;10.20;99.90;;;;;;5050613;28;20040;-67
2022/04/15 06:43:20;;;;;;;6.15;4.18;;;10.20;99.70;;;;;;5041578;28;20017;-67
2022/04/15 06:45:45;;;;;;;7.78;3.00;;;10.30;99.40;;;;;;5049049;28;20033;-67
2022/04/15 06:48:11;;;;;;;7.10;3.72;;;10.40;99.30;;;;;;5046101;28;20113;-68
2022/04/15 06:50:37;;;;;;;7.32;3.70;;;10.40;99.10;;;;;;5049516;28;20029;-67
2022/04/15 06:53:02;;;;;;;8.50;4.13;;;10.50;99.00;;;;;;5047309;28;20070;-67
2022/04/15 06:55:28;;;;;;;10.38;3.90;;;10.60;98.70;;;;;;5023775;28;20032;-67
2022/04/15 06:57:54;;;;;;;4.57;3.60;;;10.60;98.30;;;;;;5048305;28;20472;-67
2022/04/15 07:00:19;;;;;;;4.47;3.15;;;10.60;97.90;;;;;;5049571;28;20095;-67
2022/04/15 07:02:45;;;;;;;4.70;3.58;;;10.70;97.60;;;;;;5046613;28;20277;-67
2022/04/15 07:05:10;;;;;;;3.95;2.63;;;10.70;97.20;;;;;;5045051;28;20025;-67
2022/04/15 07:07:37;;;;;;;4.45;2.83;;;10.80;96.90;;;;;;5050530;28;20079;-67
2022/04/15 07:10:07;;;;;;;4.32;3.05;;;10.80;96.50;;;;;;5035125;28;20022;-67
2022/04/15 07:12:33;;;;;;;5.18;3.05;;;10.80;96.10;;;;;;5034781;28;20029;-67
2022/04/15 07:14:58;;;;;;;5.00;3.35;;;10.90;96.00;;;;;;5033378;28;20087;-67
2022/04/15 07:17:24;;;;;;;4.22;3.25;;;10.90;95.90;;;;;;5042645;28;20025;-67
2022/04/15 07:19:51;;;;;;;4.57;3.05;;;11.00;95.60;;;;;;5052866;28;20017;-67
2022/04/15 07:22:19;;;;;;;4.03;3.08;;;11.10;95.50;;;;;;5050693;28;20053;-66
2022/04/15 07:24:46;;;;;;;5.93;2.80;;;11.20;95.10;;;;;;5053053;28;20052;-67
2022/04/15 07:27:12;;;;;;;2.78;2.30;;;11.20;95.00;;;;;;5051519;28;20396;-66
2022/04/15 07:29:37;;;;;;;2.47;2.28;;;11.30;94.90;;;;;;5050429;28;20021;-67
2022/04/15 07:32:03;;;;;;;4.28;2.95;;;11.40;94.70;;;;;;5052903;28;20028;-67
2022/04/15 07:34:29;;;;;;;3.92;3.15;;;11.50;94.50;;;;;;5049830;28;20033;-67
2022/04/15 07:36:55;;;;;;;4.10;3.03;;;11.70;94.40;;;;;;5051185;28;20019;-67
2022/04/15 07:39:22;;;;;;;3.78;2.50;;;11.80;93.90;;;;;;5050437;28;20028;-67
2022/04/15 07:41:48;;;;;;;3.13;2.13;;;11.90;93.50;;;;;;5048608;28;20072;-67
2022/04/15 07:44:15;;;;;;;3.22;2.38;;;12.00;93.20;;;;;;5049679;28;20431;-67
2022/04/15 07:46:42;;;;;;;2.88;2.38;;;12.00;92.60;;;;;;5052591;28;20028;-67
2022/04/15 07:49:08;;;;;;;3.95;1.80;;;11.90;92.40;;;;;;5050391;28;20033;-66
2022/04/15 07:51:35;;;;;;;2.72;2.25;;;12.00;92.00;;;;;;5051762;28;20029;-67
2022/04/15 07:54:01;;;;;;;4.30;2.40;;;12.00;91.80;;;;;;5052331;28;20041;-67
2022/04/15 07:56:27;;;;;;;3.58;2.00;;;12.10;91.40;;;;;;5049572;28;20025;-67
2022/04/15 07:58:52;;;;;;;2.50;2.08;;;12.10;91.40;;;;;;5048297;28;20444;-67
2022/04/15 08:01:19;;;;;;;3.30;2.20;;;12.20;91.40;;;;;;5052038;28;20021;-67
2022/04/15 08:03:45;;;;;;;2.95;2.20;;;12.20;91.20;;;;;;5049443;28;20108;-67
2022/04/15 08:06:10;;;;;;;2.88;2.22;;;12.20;91.20;;;;;;5049775;28;20516;-67
2022/04/15 08:08:36;;;;;;;2.78;2.05;;;12.30;90.90;;;;;;5049275;28;20025;-67
2022/04/15 08:11:02;;;;;;;3.67;1.67;;;12.30;90.70;;;;;;5052214;28;20514;-67
2022/04/15 08:13:28;;;;;;;3.28;1.38;;;12.30;90.50;;;;;;5052067;28;20067;-67
2022/04/15 08:15:54;;;;;;;1.98;1.67;;;12.30;90.30;;;;;;5048366;28;20029;-68
2022/04/15 08:18:20;;;;;;;1.95;1.45;;;12.40;90.10;;;;;;5049450;28;20088;-68
2022/04/15 08:20:47;;;;;;;2.08;1.38;;;12.40;90.10;;;;;;5049220;28;20017;-67
2022/04/15 08:23:12;;;;;;;2.28;2.03;;;12.60;89.90;;;;;;5051659;28;20187;-67
2022/04/15 08:25:38;;;;;;;3.97;1.80;;;12.70;88.80;;;;;;5049101;28;20104;-67
2022/04/15 08:28:05;;;;;;;2.83;1.30;;;12.70;88.50;;;;;;5037303;28;20503;-66
2022/04/15 08:30:33;;;;;;;3.75;1.83;;;12.80;88.40;;;;;;5029484;28;20063;-67
2022/04/15 08:32:59;;;;;;;3.30;1.48;;;12.90;87.20;;;;;;5033448;28;20022;-67
2022/04/15 08:35:24;;;;;;;2.80;1.85;;;13.00;87.00;;;;;;5042945;28;20025;-67
2022/04/15 08:37:50;;;;;;;4.60;1.98;;;13.00;86.60;;;;;;5053158;28;20028;-67
2022/04/15 08:40:16;;;;;;;2.33;1.60;;;13.10;86.10;;;;;;5053149;28;20017;-67
2022/04/15 08:42:42;;;;;;;2.83;1.52;;;13.10;85.80;;;;;;5053241;28;20090;-67
2022/04/15 08:45:09;;;;;;;2.38;1.02;;;13.10;85.60;;;;;;5052974;28;20107;-67
2022/04/15 08:47:38;;;;;;;1.58;1.38;;;13.30;85.80;;;;;;5053059;28;20037;-67
2022/04/15 08:50:08;;;;;;;1.70;0.93;;;13.40;85.40;;;;;;5053040;28;20028;-67
2022/04/15 08:52:33;;;;;;;2.95;1.23;;;13.40;85.30;;;;;;5052081;28;20267;-67
2022/04/15 08:54:59;;;;;;;2.50;1.33;;;13.40;85.20;;;;;;5048813;28;20035;-68
2022/04/15 08:57:25;;;;;;;2.10;1.50;;;13.30;84.10;;;;;;5048386;28;20021;-68
2022/04/15 08:59:53;;;;;;;2.00;1.33;;;13.20;84.30;;;;;;5045923;28;20024;-67
2022/04/15 09:02:37;;;;;;;3.17;1.42;;;13.30;84.30;;;;;;5046635;28;20131;-67
2022/04/15 09:05:04;;;;;;;2.10;1.35;;;13.30;83.80;;;;;;5050686;28;20048;-67
2022/04/15 09:07:31;;;;;;;2.72;1.10;;;13.30;84.30;;;;;;5049084;28;20025;-67
2022/04/15 09:09:58;;;;;;;1.83;1.00;;;13.30;84.50;;;;;;5050139;28;20029;-68
2022/04/15 09:12:35;;;;;;;1.42;0.85;;;13.40;84.30;;;;;;5052119;28;20071;-68
2022/04/15 09:15:06;;;;;;;1.30;0.80;;;13.50;84.20;;;;;;5036464;28;20025;-68
2022/04/15 09:17:42;;;;;;;2.67;0.95;;;13.50;83.70;;;;;;5031178;28;20038;-68
2022/04/15 09:20:16;;;;;;;2.50;1.25;;;13.40;83.30;;;;;;5036405;28;20035;-67
2022/04/15 09:22:42;;;;;;;1.23;0.80;;;13.40;83.10;;;;;;5051409;28;20041;-67
2022/04/15 09:25:10;;;;;;;1.77;1.00;;;13.30;83.00;;;;;;5052137;28;20029;-67
2022/04/15 09:27:36;;;;;;;2.25;0.98;;;13.30;83.00;;;;;;5049390;28;20029;-66
2022/04/15 09:30:04;;;;;;;2.35;0.90;;;13.30;83.10;;;;;;5050467;28;20037;-68
2022/04/15 09:32:30;;;;;;;1.70;0.80;;;13.30;83.30;;;;;;5047491;28;20577;-68
2022/04/15 09:35:04;;;;;;;1.60;1.08;;;13.40;83.50;;;;;;5047878;28;20108;-68
2022/04/15 09:37:31;;;;;;;2.85;1.02;;;13.30;82.90;;;;;;5049197;28;20082;-67
2022/04/15 09:40:15;;;;;;;2.70;1.10;;;13.30;83.10;;;;;;5049057;28;20025;-67
2022/04/15 09:42:56;;;;;;;2.47;1.02;;;13.30;83.20;;;;;;5049579;28;20492;-67
2022/04/15 09:45:30;;;;;;;2.38;0.95;;;13.40;83.30;;;;;;5049527;28;20029;-67
2022/04/15 09:47:59;;;;;;;1.75;1.00;;;13.50;82.80;;;;;;5050620;28;20024;-67
2022/04/15 09:50:37;;;;;;;2.05;1.00;;;13.40;82.10;;;;;;5050094;28;20021;-68
2022/04/15 09:53:08;;;;;;;1.58;0.88;;;13.50;82.20;;;;;;5050158;28;20108;-67
2022/04/15 09:55:36;;;;;;;1.65;1.00;;;13.50;82.00;;;;;;5050211;28;20036;-68
2022/04/15 09:58:11;;;;;;;1.80;0.82;;;13.50;82.10;;;;;;5047417;28;20536;-67
2022/04/15 10:00:38;;;;;;;1.75;1.00;;;13.50;81.70;;;;;;5050305;28;20021;-67
2022/04/15 10:03:23;;;;;;;1.92;0.70;;;13.50;81.70;;;;;;5048633;28;20017;-67
2022/04/15 10:05:51;;;;;;;2.88;1.00;;;13.60;81.60;;;;;;5047390;28;20100;-68
2022/04/15 10:08:20;;;;;;;1.58;0.70;;;13.60;81.50;;;;;;5050593;28;20029;-67
2022/04/15 10:10:46;;;;;;;2.00;0.80;;;13.70;81.40;;;;;;5048528;28;20428;-68
2022/04/15 10:13:14;;;;;;;2.00;0.95;;;13.70;81.30;;;;;;5043458;28;20519;-67
2022/04/15 10:15:39;;;;;;;2.20;0.93;;;13.80;81.20;;;;;;5051213;28;20473;-68
2022/04/15 10:18:05;;;;;;;1.83;0.93;;;13.80;81.00;;;;;;5049001;28;20021;-68
2022/04/15 10:20:31;;;;;;;1.92;0.98;;;13.90;80.70;;;;;;5050889;28;20033;-67
2022/04/15 10:23:03;;;;;;;2.08;1.30;;;13.80;81.10;;;;;;5050753;28;20041;-67
2022/04/15 10:25:30;;;;;;;2.30;1.00;;;13.90;80.20;;;;;;5050836;28;20076;-67
2022/04/15 10:28:37;;;;;;;3.53;1.00;;;13.80;80.30;;;;;;5043827;28;20029;-68
2022/04/15 10:31:11;;;;;;;3.90;1.20;;;13.90;80.30;;;;;;5044731;28;20072;-67
2022/04/15 10:33:39;;;;;;;1.73;0.82;;;13.90;80.40;;;;;;5046495;28;20273;-67
2022/04/15 10:36:22;;;;;;;2.20;0.88;;;14.00;80.30;;;;;;5034630;28;20018;-67
2022/04/15 10:39:00;;;;;;;2.88;1.48;;;14.00;79.90;;;;;;5051698;28;20031;-67
2022/04/15 10:41:25;;;;;;;2.80;1.40;;;14.10;79.80;;;;;;5055199;28;20025;-67
2022/04/15 10:43:58;;;;;;;1.92;0.80;;;14.00;79.40;;;;;;5052478;28;20031;-67
2022/04/15 10:46:31;;;;;;;2.83;1.30;;;14.10;79.50;;;;;;5053366;28;20036;-67
2022/04/15 10:48:59;;;;;;;4.72;1.52;;;14.00;79.20;;;;;;5055066;28;20021;-67
2022/04/15 10:51:33;;;;;;;4.03;1.40;;;13.90;79.50;;;;;;5055221;28;20465;-67
2022/04/15 10:54:48;;;;;;;2.10;0.95;;;13.90;79.60;;;;;;5055078;28;20500;-67
2022/04/15 10:57:18;;;;;;;1.70;0.93;;;14.00;79.50;;;;;;5050494;28;20036;-67
2022/04/15 11:02:46;;;;;;;2.13;1.05;;;14.20;79.00;;;;;;5050840;28;20051;-68
2022/04/15 11:05:35;;;;;;;2.47;1.10;;;14.20;78.80;;;;;;5037389;28;20030;-67
2022/04/15 11:08:10;;;;;;;3.55;1.20;;;14.30;78.90;;;;;;5035009;28;20021;-67
2022/04/15 11:11:07;;;;;;;3.45;1.00;;;14.10;78.70;;;;;;5034861;28;20043;-67
2022/04/15 11:14:00;;;;;;;2.63;1.40;;;14.20;78.90;;;;;;5034818;28;20095;-67
2022/04/15 11:16:46;;;;;;;3.00;1.55;;;14.20;78.60;;;;;;5033486;28;20026;-67
2022/04/15 11:19:16;;;;;;;4.28;2.35;;;14.20;78.70;;;;;;5034488;28;20097;-67
2022/04/15 11:21:41;;;;;;;4.50;1.30;;;14.20;78.80;;;;;;5034543;28;20018;-67
2022/04/15 11:24:11;;;;;;;2.80;1.20;;;14.20;78.80;;;;;;5034479;28;20275;-67
2022/04/15 11:26:39;;;;;;;2.10;1.27;;;14.30;79.10;;;;;;5034614;28;20030;-67
2022/04/15 11:29:07;;;;;;;2.08;0.80;;;14.40;78.10;;;;;;5034711;28;20026;-67
2022/04/15 11:31:35;;;;;;;2.10;1.08;;;14.60;78.00;;;;;;5034391;28;20534;-67
2022/04/15 11:34:06;;;;;;;2.28;0.95;;;14.70;77.50;;;;;;5034523;28;20543;-67
2022/04/15 11:36:33;;;;;;;2.17;1.02;;;14.70;77.30;;;;;;5053239;28;20476;-67
2022/04/15 11:39:01;;;;;;;3.47;1.08;;;14.80;77.00;;;;;;5054185;28;20021;-67
2022/04/15 11:41:27;;;;;;;3.33;1.65;;;14.90;76.90;;;;;;5054225;28;20025;-67
2022/04/15 11:43:59;;;;;;;2.55;1.15;;;15.00;76.30;;;;;;5026407;28;20029;-68
2022/04/15 11:46:38;;;;;;;1.85;1.17;;;15.00;76.30;;;;;;5067632;28;20439;-67
2022/04/15 11:49:10;;;;;;;1.70;1.00;;;15.00;75.80;;;;;;5052616;28;20048;-67
2022/04/15 11:51:36;;;;;;;3.53;2.03;;;14.90;76.00;;;;;;5066398;28;20070;-67
2022/04/15 11:54:01;;;;;;;2.38;1.52;;;14.80;75.80;;;;;;5063724;28;20410;-67
2022/04/15 11:56:29;;;;;;;3.03;1.88;;;14.80;76.10;;;;;;5025559;28;20025;-67
2022/04/15 11:58:57;;;;;;;4.15;1.65;;;14.80;76.00;;;;;;5025591;28;20021;-66
2022/04/15 12:01:31;;;;;;;3.70;2.45;;;14.80;76.00;;;;;;5041152;28;20029;-67
2022/04/15 12:04:00;;;;;;;4.45;2.00;;;14.80;75.50;;;;;;5053261;28;20056;-67
2022/04/15 12:06:27;;;;;;;3.17;1.80;;;14.70;75.80;;;;;;5053403;28;20387;-67
2022/04/15 12:08:54;;;;;;;1.92;1.35;;;14.70;75.80;;;;;;5052194;28;20033;-67
2022/04/15 12:11:24;;;;;;;2.10;1.40;;;14.60;76.10;;;;;;5053340;28;20017;-67
2022/04/15 12:14:00;;;;;;;2.28;1.38;;;14.70;76.10;;;;;;5052127;28;20025;-67
2022/04/15 12:16:29;;;;;;;3.08;1.48;;;14.70;76.00;;;;;;5053591;28;20021;-67
2022/04/15 12:18:56;;;;;;;3.77;1.50;;;14.70;75.90;;;;;;5053457;28;20024;-67
2022/04/15 12:21:21;;;;;;;2.70;2.20;;;14.70;75.60;;;;;;5053373;28;20048;-67
2022/04/15 12:24:06;;;;;;;2.28;1.45;;;14.70;75.80;;;;;;5053235;28;20568;-67
2022/04/15 12:26:46;;;;;;;3.10;1.73;;;14.70;75.70;;;;;;5053524;28;20067;-68
2022/04/15 12:32:24;;;;;;;3.47;2.47;;;14.60;75.70;;;;;;5053638;28;20091;-67
2022/04/15 12:34:59;;;;;;;3.35;2.30;;;14.60;75.50;;;;;;5047114;28;20514;-67
2022/04/15 12:37:39;;;;;;;5.47;3.40;;;14.60;75.70;;;;;;5053048;28;20025;-67
2022/04/15 12:40:06;;;;;;;4.50;2.60;;;14.50;76.00;;;;;;5053124;28;20020;-67
2022/04/15 12:42:33;;;;;;;2.50;2.05;;;14.50;76.80;;;;;;5052755;28;20028;-68
2022/04/15 12:45:00;;;;;;;3.83;2.75;;;14.60;76.00;;;;;;5052860;28;20029;-67
2022/04/15 12:47:27;;;;;;;3.92;2.67;;;14.70;75.90;;;;;;5052921;28;20029;-67
2022/04/15 12:49:53;;;;;;;3.08;2.28;;;14.70;75.80;;;;;;5052896;28;20029;-67
2022/04/15 12:52:19;;;;;;;4.50;3.10;;;14.70;75.80;;;;;;5049099;28;20056;-67
2022/04/15 12:55:03;;;;;;;4.13;2.45;;;14.70;75.70;;;;;;5052546;28;20029;-67